Flight Track Log - Related Links

Times and Time Zones

All times are in EDT time to prevent confusion due to time zone crossing. See the MTN7305 flight status page for this flight to view local times or setup timezone preferences in your user account.


Time Position Orientation Groundspeed Altitude Reporting Facility
EDT Latitude Longitude Course Direction KTS MPH feet Rate Location/Type
Thu 11:30:53 PM 39.2000 -76.6667 30° Northeast 126 145 1,800  Level Potomac TRACON
Thu 11:31:53 PM 39.2333 -76.6333 38° Northeast 127 146 2,500 684 Climbing Potomac TRACON
Thu 11:32:47 PM 39.2500 -76.6167 38° Northeast 125 144 3,100 684 Climbing Potomac TRACON
Thu 11:33:47 PM 39.2667 -76.5833 57° Northeast 120 138 3,800 793 Climbing Potomac TRACON
Thu 11:34:48 PM 39.3000 -76.5500 38° Northeast 119 137 4,700 645 Climbing Potomac TRACON
Thu 11:35:48 PM 39.3167 -76.5167 57° Northeast 126 145 5,100 200 Climbing Potomac TRACON
Thu 11:36:00 PM 39.4682 -76.3906 30° Northeast  Level FlightAware Approximate
Thu 11:36:48 PM 39.3500 -76.4833 38° Northeast 137 158 5,100  Level Potomac TRACON
Thu 11:37:54 PM 39.3833 -76.4333 49° Northeast 142 163 5,100  Level Potomac TRACON
Thu 11:38:42 PM 39.4000 -76.4167 38° Northeast 145 167 5,100  Level Potomac TRACON
Thu 11:40:01 PM 39.4333 -76.3500 57° Northeast 154 177 5,100  Level Potomac TRACON
Thu 11:40:49 PM 39.4500 -76.3167 57° Northeast 153 176 5,100  Level Potomac TRACON
Thu 11:41:49 PM 39.4833 -76.2833 38° Northeast 151 174 5,100 -30 Level Potomac TRACON
Thu 11:44:12 PM 39.5500 -76.1833 49° Northeast 151 174 5,000 -30 Descending Philadelphia TRACON
Thu 11:45:06 PM 39.5833 -76.1500 38° Northeast 152 175 5,000  Level Philadelphia TRACON
Thu 11:46:06 PM 39.6167 -76.1167 38° Northeast 155 178 5,000  Level Philadelphia TRACON
Thu 11:47:06 PM 39.6333 -76.0667 67° East 157 181 5,000  Level Philadelphia TRACON
Thu 11:48:06 PM 39.6667 -76.0333 38° Northeast 153 176 5,000  Level Philadelphia TRACON
Thu 11:49:12 PM 39.7000 -75.9833 49° Northeast 154 177 5,000  Level Philadelphia TRACON
Thu 11:50:12 PM 39.7333 -75.9500 38° Northeast 158 182 5,000  Level Philadelphia TRACON
Thu 11:51:12 PM 39.7500 -75.9000 67° East 158 182 5,000  Level Philadelphia TRACON
Thu 11:52:12 PM 39.7833 -75.8667 38° Northeast 155 178 5,000  Level Philadelphia TRACON
Thu 11:53:12 PM 39.8167 -75.8167 49° Northeast 157 181 5,000  Level Philadelphia TRACON
Thu 11:54:12 PM 39.8500 -75.7833 38° Northeast 158 182 5,000  Level Philadelphia TRACON
Thu 11:55:06 PM 39.8667 -75.7333 67° East 158 182 5,000  Level Philadelphia TRACON
Thu 11:56:06 PM 39.9000 -75.7000 37° Northeast 159 183 5,000  Level Philadelphia TRACON
Thu 11:57:01 PM 39.9333 -75.6500 49° Northeast 166 191 5,000  Level Philadelphia TRACON
Thu 11:58:01 PM 39.9500 -75.6000 66° East 167 192 5,000  Level Philadelphia TRACON
Thu 11:59:00 PM 39.9667 -75.5500 66° East 168 193 5,000  Level Philadelphia TRACON
Fri 12:00:06 AM 40.0000 -75.5000 49° Northeast 164 189 5,000  Level Philadelphia TRACON
Fri 12:01:01 AM 40.0167 -75.4500 66° East 163 188 5,000  Level Philadelphia TRACON
Fri 12:02:01 AM 40.0333 -75.4000 66° East 170 196 5,000  Level Philadelphia TRACON
Fri 12:03:01 AM 40.0667 -75.3333 57° Northeast 170 196 5,000  Level Philadelphia TRACON
Fri 12:04:01 AM 40.0833 -75.2833 66° East 170 196 5,000  Level Philadelphia TRACON
Fri 12:05:01 AM 40.1167 -75.2333 49° Northeast 170 196 5,000  Level Philadelphia TRACON
Fri 12:06:01 AM 40.1333 -75.1833 66° East 169 194 5,000  Level Philadelphia TRACON
Fri 12:07:01 AM 40.1667 -75.1333 49° Northeast 168 193 5,000  Level Philadelphia TRACON
Fri 12:08:01 AM 40.1833 -75.0667 72° East 170 196 5,000  Level Philadelphia TRACON
Fri 12:08:49 AM 40.2000 -75.0333 57° Northeast 171 197 5,000  Level New York TRACON
Fri 12:09:55 AM 40.2333 -74.9667 57° Northeast 172 198 5,000  Level New York TRACON
Fri 12:10:55 AM 40.2500 -74.9167 66° East 172 198 5,000  Level New York TRACON

Login

Don't have an account? Register now (free) for customized features, flight alerts, and more!